sensor_id;sensor_type;location;lat;lon;timestamp;noise_LAeq;noise_LA_min;noise_LA_max;noise_LA01;noise_LA95
74210;Laerm;62569;51.976;5.646;2022-08-11T00:02:28;28.98;26.65;35.00;;
74210;Laerm;62569;51.976;5.646;2022-08-11T00:04:54;28.96;26.50;34.95;;
74210;Laerm;62569;51.976;5.646;2022-08-11T00:07:20;28.88;26.40;35.43;;
74210;Laerm;62569;51.976;5.646;2022-08-11T00:09:45;29.16;26.75;34.77;;
74210;Laerm;62569;51.976;5.646;2022-08-11T00:12:13;29.17;26.64;35.32;;
74210;Laerm;62569;51.976;5.646;2022-08-11T00:14:38;28.97;26.44;35.30;;
74210;Laerm;62569;51.976;5.646;2022-08-11T00:17:05;28.97;26.61;35.39;;
74210;Laerm;62569;51.976;5.646;2022-08-11T00:19:33;28.97;26.44;35.23;;
74210;Laerm;62569;51.976;5.646;2022-08-11T00:21:59;29.01;26.80;35.54;;
74210;Laerm;62569;51.976;5.646;2022-08-11T00:24:25;28.92;26.52;35.43;;
74210;Laerm;62569;51.976;5.646;2022-08-11T00:26:56;28.91;26.34;35.46;;
74210;Laerm;62569;51.976;5.646;2022-08-11T00:29:22;29.01;26.69;35.11;;
74210;Laerm;62569;51.976;5.646;2022-08-11T00:31:51;29.14;26.63;40.37;;
74210;Laerm;62569;51.976;5.646;2022-08-11T00:34:17;28.94;26.57;34.82;;
74210;Laerm;62569;51.976;5.646;2022-08-11T00:36:52;31.92;26.42;61.58;;
74210;Laerm;62569;51.976;5.646;2022-08-11T00:39:19;28.88;26.57;42.60;;
74210;Laerm;62569;51.976;5.646;2022-08-11T00:42:06;28.78;26.59;34.69;;
74210;Laerm;62569;51.976;5.646;2022-08-11T00:44:36;29.01;26.54;35.00;;
74210;Laerm;62569;51.976;5.646;2022-08-11T00:47:16;28.91;26.44;34.60;;
74210;Laerm;62569;51.976;5.646;2022-08-11T00:52:25;28.70;26.42;34.22;;
74210;Laerm;62569;51.976;5.646;2022-08-11T00:57:49;28.76;26.63;34.47;;
74210;Laerm;62569;51.976;5.646;2022-08-11T01:00:18;28.94;26.52;39.17;;
74210;Laerm;62569;51.976;5.646;2022-08-11T01:05:27;28.95;26.66;34.75;;
74210;Laerm;62569;51.976;5.646;2022-08-11T01:08:06;28.94;26.45;34.40;;
74210;Laerm;62569;51.976;5.646;2022-08-11T01:13:16;29.02;26.56;34.95;;
74210;Laerm;62569;51.976;5.646;2022-08-11T01:21:19;28.97;26.64;34.65;;
74210;Laerm;62569;51.976;5.646;2022-08-11T01:29:10;28.81;26.58;39.38;;
74210;Laerm;62569;51.976;5.646;2022-08-11T01:31:54;28.94;26.69;40.68;;
74210;Laerm;62569;51.976;5.646;2022-08-11T01:37:15;29.01;26.57;34.58;;
74210;Laerm;62569;51.976;5.646;2022-08-11T01:39:57;28.76;26.42;34.77;;
74210;Laerm;62569;51.976;5.646;2022-08-11T01:42:36;28.79;26.63;38.24;;
74210;Laerm;62569;51.976;5.646;2022-08-11T01:47:58;28.82;26.45;34.91;;
74210;Laerm;62569;51.976;5.646;2022-08-11T01:58:30;29.00;26.40;34.94;;
74210;Laerm;62569;51.976;5.646;2022-08-11T02:01:04;28.92;26.61;39.91;;
74210;Laerm;62569;51.976;5.646;2022-08-11T02:03:40;28.82;26.40;35.11;;
74210;Laerm;62569;51.976;5.646;2022-08-11T02:06:14;28.94;26.51;35.60;;
74210;Laerm;62569;51.976;5.646;2022-08-11T02:09:06;29.10;26.73;35.42;;
74210;Laerm;62569;51.976;5.646;2022-08-11T02:11:34;29.02;26.81;35.02;;
74210;Laerm;62569;51.976;5.646;2022-08-11T02:14:11;29.09;26.81;35.79;;
74210;Laerm;62569;51.976;5.646;2022-08-11T02:16:43;28.99;26.54;37.39;;
74210;Laerm;62569;51.976;5.646;2022-08-11T02:27:36;29.07;26.77;34.98;;
74210;Laerm;62569;51.976;5.646;2022-08-11T02:30:05;28.97;26.75;40.17;;
74210;Laerm;62569;51.976;5.646;2022-08-11T02:32:44;29.10;26.72;45.64;;
74210;Laerm;62569;51.976;5.646;2022-08-11T02:35:37;29.31;26.86;35.00;;
74210;Laerm;62569;51.976;5.646;2022-08-11T02:40:59;29.20;26.69;34.73;;
74210;Laerm;62569;51.976;5.646;2022-08-11T02:43:45;29.19;26.88;34.66;;
74210;Laerm;62569;51.976;5.646;2022-08-11T02:46:25;29.28;26.80;50.41;;
74210;Laerm;62569;51.976;5.646;2022-08-11T02:48:58;29.15;26.77;34.70;;
74210;Laerm;62569;51.976;5.646;2022-08-11T02:57:19;29.57;27.15;35.03;;
74210;Laerm;62569;51.976;5.646;2022-08-11T02:59:47;29.46;26.95;39.93;;
74210;Laerm;62569;51.976;5.646;2022-08-11T03:10:20;29.58;27.11;35.00;;
74210;Laerm;62569;51.976;5.646;2022-08-11T03:19:00;29.63;27.01;35.58;;
74210;Laerm;62569;51.976;5.646;2022-08-11T03:21:47;29.79;26.77;35.39;;
74210;Laerm;62569;51.976;5.646;2022-08-11T03:24:20;29.66;27.22;35.84;;
74210;Laerm;62569;51.976;5.646;2022-08-11T03:34:38;29.94;27.20;35.06;;
74210;Laerm;62569;51.976;5.646;2022-08-11T03:37:24;30.93;27.90;38.00;;
74210;Laerm;62569;51.976;5.646;2022-08-11T03:46:09;30.73;28.01;35.65;;
74210;Laerm;62569;51.976;5.646;2022-08-11T03:48:39;30.56;28.10;35.35;;
74210;Laerm;62569;51.976;5.646;2022-08-11T03:53:47;30.56;27.89;35.15;;
74210;Laerm;62569;51.976;5.646;2022-08-11T04:03:43;30.44;28.03;35.65;;
74210;Laerm;62569;51.976;5.646;2022-08-11T04:11:44;31.47;28.34;38.37;;
74210;Laerm;62569;51.976;5.646;2022-08-11T04:19:45;31.62;28.08;45.59;;
74210;Laerm;62569;51.976;5.646;2022-08-11T04:22:26;32.25;28.67;49.71;;
74210;Laerm;62569;51.976;5.646;2022-08-11T04:27:58;31.96;28.42;43.93;;
74210;Laerm;62569;51.976;5.646;2022-08-11T04:41:08;40.98;29.83;71.60;;
74210;Laerm;62569;51.976;5.646;2022-08-11T04:46:27;36.82;31.23;60.24;;
74210;Laerm;62569;51.976;5.646;2022-08-11T04:52:19;42.65;28.97;70.08;;
74210;Laerm;62569;51.976;5.646;2022-08-11T04:57:52;49.51;29.53;77.32;;
74210;Laerm;62569;51.976;5.646;2022-08-11T05:00:57;44.57;30.08;74.50;;
74210;Laerm;62569;51.976;5.646;2022-08-11T05:14:26;60.41;30.32;89.71;;
74210;Laerm;62569;51.976;5.646;2022-08-11T05:17:13;49.30;30.16;77.82;;
74210;Laerm;62569;51.976;5.646;2022-08-11T05:19:58;44.95;30.28;77.34;;
74210;Laerm;62569;51.976;5.646;2022-08-11T05:22:48;42.33;29.16;72.20;;
74210;Laerm;62569;51.976;5.646;2022-08-11T05:25:33;48.20;30.00;76.17;;
74210;Laerm;62569;51.976;5.646;2022-08-11T05:28:26;44.14;29.75;73.57;;
74210;Laerm;62569;51.976;5.646;2022-08-11T05:31:12;46.21;30.08;78.13;;
74210;Laerm;62569;51.976;5.646;2022-08-11T05:33:58;35.61;32.08;52.87;;
74210;Laerm;62569;51.976;5.646;2022-08-11T05:36:51;50.00;32.18;80.36;;
74210;Laerm;62569;51.976;5.646;2022-08-11T05:39:19;37.22;30.47;51.05;;
74210;Laerm;62569;51.976;5.646;2022-08-11T05:42:04;42.39;30.10;72.73;;
74210;Laerm;62569;51.976;5.646;2022-08-11T05:44:48;42.45;29.74;70.39;;
74210;Laerm;62569;51.976;5.646;2022-08-11T05:47:33;49.24;32.27;80.07;;
74210;Laerm;62569;51.976;5.646;2022-08-11T05:50:18;46.35;31.80;68.36;;
74210;Laerm;62569;51.976;5.646;2022-08-11T05:53:04;45.83;30.78;75.47;;
74210;Laerm;62569;51.976;5.646;2022-08-11T05:55:51;56.29;34.28;77.17;;
74210;Laerm;62569;51.976;5.646;2022-08-11T05:58:36;42.94;32.88;69.08;;
74210;Laerm;62569;51.976;5.646;2022-08-11T06:01:02;48.38;33.28;79.94;;
74210;Laerm;62569;51.976;5.646;2022-08-11T06:03:28;48.77;33.58;78.81;;
74210;Laerm;62569;51.976;5.646;2022-08-11T06:05:55;42.74;33.80;68.17;;
74210;Laerm;62569;51.976;5.646;2022-08-11T06:08:29;40.57;34.76;65.12;;
74210;Laerm;62569;51.976;5.646;2022-08-11T06:10:58;45.96;36.74;74.40;;
74210;Laerm;62569;51.976;5.646;2022-08-11T06:13:24;47.72;43.88;57.48;;
74210;Laerm;62569;51.976;5.646;2022-08-11T06:15:50;45.91;31.01;72.16;;
74210;Laerm;62569;51.976;5.646;2022-08-11T06:18:16;46.54;31.77;78.93;;
74210;Laerm;62569;51.976;5.646;2022-08-11T06:20:49;38.73;31.79;64.78;;
74210;Laerm;62569;51.976;5.646;2022-08-11T06:23:16;45.00;31.19;78.59;;
74210;Laerm;62569;51.976;5.646;2022-08-11T06:25:47;38.24;30.87;68.26;;
74210;Laerm;62569;51.976;5.646;2022-08-11T06:28:12;38.58;30.31;66.10;;
74210;Laerm;62569;51.976;5.646;2022-08-11T06:30:40;34.26;29.87;52.48;;
74210;Laerm;62569;51.976;5.646;2022-08-11T06:33:07;41.62;29.49;67.82;;
74210;Laerm;62569;51.976;5.646;2022-08-11T06:38:37;32.52;28.78;44.63;;
74210;Laerm;62569;51.976;5.646;2022-08-11T06:41:18;45.16;28.95;72.94;;
74210;Laerm;62569;51.976;5.646;2022-08-11T06:46:28;46.57;28.65;73.68;;
74210;Laerm;62569;51.976;5.646;2022-08-11T06:48:53;45.93;28.51;72.53;;
74210;Laerm;62569;51.976;5.646;2022-08-11T06:51:20;38.80;28.56;67.21;;
74210;Laerm;62569;51.976;5.646;2022-08-11T06:53:46;36.36;28.28;61.46;;
74210;Laerm;62569;51.976;5.646;2022-08-11T06:56:13;47.31;28.41;76.09;;
74210;Laerm;62569;51.976;5.646;2022-08-11T06:58:58;42.75;28.92;68.07;;
74210;Laerm;62569;51.976;5.646;2022-08-11T07:12:45;55.13;28.53;85.41;;
74210;Laerm;62569;51.976;5.646;2022-08-11T07:15:32;32.37;28.43;51.77;;
74210;Laerm;62569;51.976;5.646;2022-08-11T07:18:19;34.60;28.22;54.92;;
74210;Laerm;62569;51.976;5.646;2022-08-11T07:21:08;36.47;28.02;61.14;;
74210;Laerm;62569;51.976;5.646;2022-08-11T07:23:53;49.03;28.26;69.75;;
74210;Laerm;62569;51.976;5.646;2022-08-11T07:26:38;51.02;28.13;78.09;;
74210;Laerm;62569;51.976;5.646;2022-08-11T07:29:23;49.09;27.96;74.79;;
74210;Laerm;62569;51.976;5.646;2022-08-11T07:31:50;41.99;28.67;70.44;;
74210;Laerm;62569;51.976;5.646;2022-08-11T07:34:25;38.89;27.96;65.47;;
74210;Laerm;62569;51.976;5.646;2022-08-11T07:36:53;50.99;28.63;79.59;;
74210;Laerm;62569;51.976;5.646;2022-08-11T07:39:24;44.57;28.34;72.35;;
74210;Laerm;62569;51.976;5.646;2022-08-11T07:41:50;44.71;32.47;71.58;;
74210;Laerm;62569;51.976;5.646;2022-08-11T07:44:16;41.08;29.04;64.70;;
74210;Laerm;62569;51.976;5.646;2022-08-11T07:46:42;40.85;28.38;60.78;;
74210;Laerm;62569;51.976;5.646;2022-08-11T07:49:28;45.81;30.35;73.61;;
74210;Laerm;62569;51.976;5.646;2022-08-11T07:52:14;40.12;28.16;56.30;;
74210;Laerm;62569;51.976;5.646;2022-08-11T07:54:55;44.27;29.13;73.74;;
74210;Laerm;62569;51.976;5.646;2022-08-11T07:57:21;41.97;32.81;57.94;;
74210;Laerm;62569;51.976;5.646;2022-08-11T08:00:06;43.33;30.62;72.99;;
74210;Laerm;62569;51.976;5.646;2022-08-11T08:02:50;43.93;29.92;69.06;;
74210;Laerm;62569;51.976;5.646;2022-08-11T08:05:35;40.85;32.20;48.54;;
74210;Laerm;62569;51.976;5.646;2022-08-11T08:08:19;39.43;27.83;54.31;;
74210;Laerm;62569;51.976;5.646;2022-08-11T08:11:04;42.93;28.91;70.31;;
74210;Laerm;62569;51.976;5.646;2022-08-11T08:13:47;44.91;29.29;73.45;;
74210;Laerm;62569;51.976;5.646;2022-08-11T08:16:31;43.24;31.19;67.34;;
74210;Laerm;62569;51.976;5.646;2022-08-11T08:19:16;40.56;28.58;55.46;;
74210;Laerm;62569;51.976;5.646;2022-08-11T08:21:43;39.57;29.03;54.31;;
74210;Laerm;62569;51.976;5.646;2022-08-11T08:24:09;46.26;28.59;73.69;;
74210;Laerm;62569;51.976;5.646;2022-08-11T08:26:35;40.38;32.29;59.33;;
74210;Laerm;62569;51.976;5.646;2022-08-11T08:29:19;39.58;28.61;60.23;;
74210;Laerm;62569;51.976;5.646;2022-08-11T08:32:04;42.22;30.95;66.40;;
74210;Laerm;62569;51.976;5.646;2022-08-11T08:34:30;54.22;28.08;86.14;;
74210;Laerm;62569;51.976;5.646;2022-08-11T08:36:56;50.90;29.16;80.36;;
74210;Laerm;62569;51.976;5.646;2022-08-11T08:39:22;44.86;28.95;70.48;;
74210;Laerm;62569;51.976;5.646;2022-08-11T08:41:54;44.63;29.92;71.49;;
74210;Laerm;62569;51.976;5.646;2022-08-11T08:44:20;42.36;31.38;51.98;;
74210;Laerm;62569;51.976;5.646;2022-08-11T08:46:50;46.63;27.91;79.38;;
74210;Laerm;62569;51.976;5.646;2022-08-11T08:49:18;41.04;29.40;66.73;;
74210;Laerm;62569;51.976;5.646;2022-08-11T08:51:48;48.73;32.13;77.59;;
74210;Laerm;62569;51.976;5.646;2022-08-11T08:54:16;47.24;31.26;80.08;;
74210;Laerm;62569;51.976;5.646;2022-08-11T08:56:43;41.00;32.34;54.75;;
74210;Laerm;62569;51.976;5.646;2022-08-11T08:59:09;58.43;31.85;82.00;;
74210;Laerm;62569;51.976;5.646;2022-08-11T09:01:47;48.07;27.96;78.64;;
74210;Laerm;62569;51.976;5.646;2022-08-11T09:04:14;50.26;30.36;82.61;;
74210;Laerm;62569;51.976;5.646;2022-08-11T09:06:42;41.06;31.66;50.16;;
74210;Laerm;62569;51.976;5.646;2022-08-11T09:09:07;46.95;28.16;77.77;;
74210;Laerm;62569;51.976;5.646;2022-08-11T09:11:34;42.14;27.94;58.22;;
74210;Laerm;62569;51.976;5.646;2022-08-11T09:14:15;42.61;29.96;67.04;;
74210;Laerm;62569;51.976;5.646;2022-08-11T09:16:40;41.02;28.41;66.70;;
74210;Laerm;62569;51.976;5.646;2022-08-11T09:19:07;44.50;30.18;69.86;;
74210;Laerm;62569;51.976;5.646;2022-08-11T09:21:33;43.99;28.38;66.16;;
74210;Laerm;62569;51.976;5.646;2022-08-11T09:23:58;41.67;28.98;60.22;;
74210;Laerm;62569;51.976;5.646;2022-08-11T09:26:42;44.60;29.08;66.59;;
74210;Laerm;62569;51.976;5.646;2022-08-11T09:29:23;44.98;28.05;75.05;;
74210;Laerm;62569;51.976;5.646;2022-08-11T09:31:48;42.30;32.65;60.70;;
74210;Laerm;62569;51.976;5.646;2022-08-11T09:34:14;45.85;31.32;70.98;;
74210;Laerm;62569;51.976;5.646;2022-08-11T09:36:40;44.08;29.38;65.86;;
74210;Laerm;62569;51.976;5.646;2022-08-11T09:39:27;51.26;31.51;81.68;;
74210;Laerm;62569;51.976;5.646;2022-08-11T09:42:11;43.50;27.64;69.88;;
74210;Laerm;62569;51.976;5.646;2022-08-11T09:44:37;41.06;28.23;50.14;;
74210;Laerm;62569;51.976;5.646;2022-08-11T09:47:22;41.34;27.32;49.43;;
74210;Laerm;62569;51.976;5.646;2022-08-11T09:49:48;42.25;29.08;51.76;;
74210;Laerm;62569;51.976;5.646;2022-08-11T09:52:16;42.87;29.60;53.33;;
74210;Laerm;62569;51.976;5.646;2022-08-11T09:54:42;41.96;26.80;53.65;;
74210;Laerm;62569;51.976;5.646;2022-08-11T09:57:08;51.88;28.24;77.82;;
74210;Laerm;62569;51.976;5.646;2022-08-11T09:59:52;42.42;32.76;65.30;;
74210;Laerm;62569;51.976;5.646;2022-08-11T10:02:18;35.70;29.34;58.46;;
74210;Laerm;62569;51.976;5.646;2022-08-11T10:04:47;33.95;29.16;54.99;;
74210;Laerm;62569;51.976;5.646;2022-08-11T10:07:14;39.20;29.75;67.62;;
74210;Laerm;62569;51.976;5.646;2022-08-11T10:12:09;42.61;31.40;67.97;;
74210;Laerm;62569;51.976;5.646;2022-08-11T10:14:36;41.67;30.96;72.04;;
74210;Laerm;62569;51.976;5.646;2022-08-11T10:17:22;48.05;31.42;73.93;;
74210;Laerm;62569;51.976;5.646;2022-08-11T10:19:48;60.74;32.74;93.82;;
74210;Laerm;62569;51.976;5.646;2022-08-11T10:22:14;51.91;30.84;83.66;;
74210;Laerm;62569;51.976;5.646;2022-08-11T10:24:59;47.83;32.55;74.52;;
74210;Laerm;62569;51.976;5.646;2022-08-11T10:27:43;46.98;31.23;73.90;;
74210;Laerm;62569;51.976;5.646;2022-08-11T10:30:09;47.37;30.83;75.69;;
74210;Laerm;62569;51.976;5.646;2022-08-11T10:32:52;42.99;33.14;65.33;;
74210;Laerm;62569;51.976;5.646;2022-08-11T10:35:36;46.17;30.34;76.46;;
74210;Laerm;62569;51.976;5.646;2022-08-11T10:38:02;42.99;31.06;65.05;;
74210;Laerm;62569;51.976;5.646;2022-08-11T10:40:27;43.10;35.61;58.18;;
74210;Laerm;62569;51.976;5.646;2022-08-11T10:42:54;42.38;35.94;61.34;;
74210;Laerm;62569;51.976;5.646;2022-08-11T10:45:26;42.56;32.40;64.47;;
74210;Laerm;62569;51.976;5.646;2022-08-11T10:48:11;42.64;32.32;66.43;;
74210;Laerm;62569;51.976;5.646;2022-08-11T10:50:36;42.96;31.68;62.06;;
74210;Laerm;62569;51.976;5.646;2022-08-11T10:53:21;45.36;32.60;72.70;;
74210;Laerm;62569;51.976;5.646;2022-08-11T10:56:05;42.95;30.84;70.07;;
74210;Laerm;62569;51.976;5.646;2022-08-11T10:58:50;41.39;33.73;58.76;;
74210;Laerm;62569;51.976;5.646;2022-08-11T11:01:26;43.07;32.55;62.31;;
74210;Laerm;62569;51.976;5.646;2022-08-11T11:03:57;43.27;31.57;64.30;;
74210;Laerm;62569;51.976;5.646;2022-08-11T11:09:13;42.74;33.01;67.72;;
74210;Laerm;62569;51.976;5.646;2022-08-11T11:11:42;47.20;30.07;76.52;;
74210;Laerm;62569;51.976;5.646;2022-08-11T11:14:29;43.91;31.00;69.92;;
74210;Laerm;62569;51.976;5.646;2022-08-11T11:17:14;48.87;29.93;75.09;;
74210;Laerm;62569;51.976;5.646;2022-08-11T11:19:45;39.74;28.89;51.01;;
74210;Laerm;62569;51.976;5.646;2022-08-11T11:22:11;45.29;31.61;68.50;;
74210;Laerm;62569;51.976;5.646;2022-08-11T11:25:09;46.35;29.27;71.57;;
74210;Laerm;62569;51.976;5.646;2022-08-11T11:30:23;41.99;30.15;66.14;;
74210;Laerm;62569;51.976;5.646;2022-08-11T11:35:24;45.62;32.58;68.76;;
74210;Laerm;62569;51.976;5.646;2022-08-11T11:37:52;47.71;33.35;76.64;;
74210;Laerm;62569;51.976;5.646;2022-08-11T11:40:20;47.56;34.26;72.25;;
74210;Laerm;62569;51.976;5.646;2022-08-11T11:42:47;41.48;32.13;64.92;;
74210;Laerm;62569;51.976;5.646;2022-08-11T11:45:16;43.73;33.49;71.01;;
74210;Laerm;62569;51.976;5.646;2022-08-11T11:47:43;48.61;34.61;75.84;;
74210;Laerm;62569;51.976;5.646;2022-08-11T11:50:08;41.47;30.28;55.36;;
74210;Laerm;62569;51.976;5.646;2022-08-11T11:52:34;45.59;33.15;74.07;;
74210;Laerm;62569;51.976;5.646;2022-08-11T11:55:00;45.49;29.45;72.14;;
74210;Laerm;62569;51.976;5.646;2022-08-11T11:57:26;42.30;33.13;67.60;;
74210;Laerm;62569;51.976;5.646;2022-08-11T12:00:11;44.73;29.32;75.04;;
74210;Laerm;62569;51.976;5.646;2022-08-11T12:02:56;52.43;30.71;79.51;;
74210;Laerm;62569;51.976;5.646;2022-08-11T12:05:22;44.59;30.78;69.32;;
74210;Laerm;62569;51.976;5.646;2022-08-11T12:07:48;45.63;32.47;68.57;;
74210;Laerm;62569;51.976;5.646;2022-08-11T12:10:32;55.37;32.90;82.00;;
74210;Laerm;62569;51.976;5.646;2022-08-11T12:13:00;53.36;32.68;76.86;;
74210;Laerm;62569;51.976;5.646;2022-08-11T12:15:45;48.23;33.61;72.59;;
74210;Laerm;62569;51.976;5.646;2022-08-11T12:18:10;43.98;29.89;68.41;;
74210;Laerm;62569;51.976;5.646;2022-08-11T12:20:36;46.48;29.53;70.63;;
74210;Laerm;62569;51.976;5.646;2022-08-11T12:23:02;44.65;29.74;73.07;;
74210;Laerm;62569;51.976;5.646;2022-08-11T12:25:46;42.30;30.68;69.60;;
74210;Laerm;62569;51.976;5.646;2022-08-11T12:28:30;44.86;30.58;71.39;;
74210;Laerm;62569;51.976;5.646;2022-08-11T12:30:55;44.12;32.39;65.42;;
74210;Laerm;62569;51.976;5.646;2022-08-11T12:33:21;50.13;29.29;74.83;;
74210;Laerm;62569;51.976;5.646;2022-08-11T12:35:47;45.87;30.72;70.69;;
74210;Laerm;62569;51.976;5.646;2022-08-11T12:38:16;45.06;30.40;68.45;;
74210;Laerm;62569;51.976;5.646;2022-08-11T12:40:44;42.09;30.72;65.02;;
74210;Laerm;62569;51.976;5.646;2022-08-11T12:43:29;47.14;28.70;74.54;;
74210;Laerm;62569;51.976;5.646;2022-08-11T12:46:15;39.60;28.95;71.31;;
74210;Laerm;62569;51.976;5.646;2022-08-11T12:48:44;55.09;29.29;82.34;;
74210;Laerm;62569;51.976;5.646;2022-08-11T12:51:30;40.41;29.01;69.43;;
74210;Laerm;62569;51.976;5.646;2022-08-11T12:54:16;44.32;28.72;75.75;;
74210;Laerm;62569;51.976;5.646;2022-08-11T12:56:45;44.49;28.75;73.61;;
74210;Laerm;62569;51.976;5.646;2022-08-11T12:59:30;45.32;29.18;75.79;;
74210;Laerm;62569;51.976;5.646;2022-08-11T13:02:15;39.95;29.11;69.37;;
74210;Laerm;62569;51.976;5.646;2022-08-11T13:05:00;46.17;29.58;73.00;;
74210;Laerm;62569;51.976;5.646;2022-08-11T13:07:26;36.55;29.01;59.63;;
74210;Laerm;62569;51.976;5.646;2022-08-11T13:09:52;43.30;29.07;75.65;;
74210;Laerm;62569;51.976;5.646;2022-08-11T13:12:18;42.15;28.20;66.67;;
74210;Laerm;62569;51.976;5.646;2022-08-11T13:15:02;44.72;28.77;70.90;;
74210;Laerm;62569;51.976;5.646;2022-08-11T13:17:28;43.50;28.83;65.45;;
74210;Laerm;62569;51.976;5.646;2022-08-11T13:19:55;39.22;28.49;63.79;;
74210;Laerm;62569;51.976;5.646;2022-08-11T13:22:21;43.84;28.21;70.11;;
74210;Laerm;62569;51.976;5.646;2022-08-11T13:24:48;42.81;28.39;70.95;;
74210;Laerm;62569;51.976;5.646;2022-08-11T13:27:14;44.62;28.70;73.47;;
74210;Laerm;62569;51.976;5.646;2022-08-11T13:29:41;41.94;28.79;70.17;;
74210;Laerm;62569;51.976;5.646;2022-08-11T13:32:06;39.10;28.87;60.94;;
74210;Laerm;62569;51.976;5.646;2022-08-11T13:34:32;41.38;28.71;66.12;;
74210;Laerm;62569;51.976;5.646;2022-08-11T13:37:01;40.01;29.15;65.90;;
74210;Laerm;62569;51.976;5.646;2022-08-11T13:39:29;46.04;29.60;69.88;;
74210;Laerm;62569;51.976;5.646;2022-08-11T13:41:55;36.68;29.18;57.50;;
74210;Laerm;62569;51.976;5.646;2022-08-11T13:44:21;35.92;28.79;58.40;;
74210;Laerm;62569;51.976;5.646;2022-08-11T13:46:48;42.62;27.33;67.75;;
74210;Laerm;62569;51.976;5.646;2022-08-11T13:49:14;34.63;27.07;58.58;;
74210;Laerm;62569;51.976;5.646;2022-08-11T13:51:40;30.09;27.01;47.80;;
74210;Laerm;62569;51.976;5.646;2022-08-11T13:54:06;32.43;27.06;47.11;;
74210;Laerm;62569;51.976;5.646;2022-08-11T13:56:33;30.20;27.04;52.41;;
74210;Laerm;62569;51.976;5.646;2022-08-11T13:59:00;31.06;27.19;43.75;;
74210;Laerm;62569;51.976;5.646;2022-08-11T14:01:28;30.30;26.78;42.57;;
74210;Laerm;62569;51.976;5.646;2022-08-11T14:03:54;31.28;27.46;56.70;;
74210;Laerm;62569;51.976;5.646;2022-08-11T14:06:20;32.23;27.54;46.74;;
74210;Laerm;62569;51.976;5.646;2022-08-11T14:08:46;33.43;27.19;63.60;;
74210;Laerm;62569;51.976;5.646;2022-08-11T14:11:12;32.21;26.86;60.08;;
74210;Laerm;62569;51.976;5.646;2022-08-11T14:13:58;30.74;27.22;42.35;;
74210;Laerm;62569;51.976;5.646;2022-08-11T14:16:28;31.06;27.59;39.03;;
74210;Laerm;62569;51.976;5.646;2022-08-11T14:18:56;30.81;27.51;39.87;;
74210;Laerm;62569;51.976;5.646;2022-08-11T14:21:23;30.92;27.54;42.14;;
74210;Laerm;62569;51.976;5.646;2022-08-11T14:24:08;31.19;27.41;42.66;;
74210;Laerm;62569;51.976;5.646;2022-08-11T14:26:35;31.41;27.67;52.72;;
74210;Laerm;62569;51.976;5.646;2022-08-11T14:29:07;30.29;27.26;42.53;;
74210;Laerm;62569;51.976;5.646;2022-08-11T14:31:34;31.43;27.49;42.60;;
74210;Laerm;62569;51.976;5.646;2022-08-11T14:34:02;31.05;27.07;43.44;;
74210;Laerm;62569;51.976;5.646;2022-08-11T14:36:34;31.46;27.15;43.97;;
74210;Laerm;62569;51.976;5.646;2022-08-11T14:39:01;31.83;27.11;55.64;;
74210;Laerm;62569;51.976;5.646;2022-08-11T14:41:26;32.14;27.54;48.32;;
74210;Laerm;62569;51.976;5.646;2022-08-11T14:44:10;31.37;27.75;44.85;;
74210;Laerm;62569;51.976;5.646;2022-08-11T14:46:54;33.44;28.16;41.12;;
74210;Laerm;62569;51.976;5.646;2022-08-11T14:49:33;32.92;27.30;51.23;;
74210;Laerm;62569;51.976;5.646;2022-08-11T14:52:00;30.46;27.39;47.65;;
74210;Laerm;62569;51.976;5.646;2022-08-11T14:54:27;30.86;27.14;46.52;;
74210;Laerm;62569;51.976;5.646;2022-08-11T14:57:11;30.75;26.95;40.17;;
74210;Laerm;62569;51.976;5.646;2022-08-11T14:59:37;32.12;27.76;44.88;;
74210;Laerm;62569;51.976;5.646;2022-08-11T15:02:02;30.51;27.34;41.62;;
74210;Laerm;62569;51.976;5.646;2022-08-11T15:04:47;31.16;27.35;46.05;;
74210;Laerm;62569;51.976;5.646;2022-08-11T15:07:13;33.68;27.35;50.88;;
74210;Laerm;62569;51.976;5.646;2022-08-11T15:09:42;30.63;27.12;46.73;;
74210;Laerm;62569;51.976;5.646;2022-08-11T15:12:08;30.67;27.39;37.51;;
74210;Laerm;62569;51.976;5.646;2022-08-11T15:14:34;31.53;27.65;40.26;;
74210;Laerm;62569;51.976;5.646;2022-08-11T15:17:18;30.31;27.42;40.62;;
74210;Laerm;62569;51.976;5.646;2022-08-11T15:19:44;31.26;27.27;39.45;;
74210;Laerm;62569;51.976;5.646;2022-08-11T15:22:29;31.10;27.11;43.67;;
74210;Laerm;62569;51.976;5.646;2022-08-11T15:25:13;32.16;27.41;51.24;;
74210;Laerm;62569;51.976;5.646;2022-08-11T15:27:38;33.57;27.93;46.91;;
74210;Laerm;62569;51.976;5.646;2022-08-11T15:30:24;32.93;27.07;44.85;;
74210;Laerm;62569;51.976;5.646;2022-08-11T15:33:08;31.86;27.15;47.31;;
74210;Laerm;62569;51.976;5.646;2022-08-11T15:35:53;38.65;27.19;62.30;;
74210;Laerm;62569;51.976;5.646;2022-08-11T15:38:39;39.09;27.73;61.81;;
74210;Laerm;62569;51.976;5.646;2022-08-11T15:41:05;47.38;27.66;59.69;;
74210;Laerm;62569;51.976;5.646;2022-08-11T15:43:51;48.15;28.25;66.89;;
74210;Laerm;62569;51.976;5.646;2022-08-11T15:46:46;53.75;28.45;75.41;;
74210;Laerm;62569;51.976;5.646;2022-08-11T15:51:42;48.68;28.28;62.31;;
74210;Laerm;62569;51.976;5.646;2022-08-11T15:54:10;49.03;28.15;63.67;;
74210;Laerm;62569;51.976;5.646;2022-08-11T15:56:38;50.07;28.35;69.64;;
74210;Laerm;62569;51.976;5.646;2022-08-11T15:59:05;49.21;29.47;70.72;;
74210;Laerm;62569;51.976;5.646;2022-08-11T16:01:51;47.70;28.88;63.59;;
74210;Laerm;62569;51.976;5.646;2022-08-11T16:04:56;47.88;28.85;61.00;;
74210;Laerm;62569;51.976;5.646;2022-08-11T16:07:23;47.93;28.83;62.88;;
74210;Laerm;62569;51.976;5.646;2022-08-11T16:10:01;48.39;28.79;60.99;;
74210;Laerm;62569;51.976;5.646;2022-08-11T16:12:30;48.65;31.32;62.36;;
74210;Laerm;62569;51.976;5.646;2022-08-11T16:15:00;48.76;29.93;67.03;;
74210;Laerm;62569;51.976;5.646;2022-08-11T16:17:44;56.27;30.49;83.78;;
74210;Laerm;62569;51.976;5.646;2022-08-11T16:20:10;48.35;31.99;64.12;;
74210;Laerm;62569;51.976;5.646;2022-08-11T16:22:36;52.34;30.10;81.79;;
74210;Laerm;62569;51.976;5.646;2022-08-11T16:25:06;48.32;30.70;62.95;;
74210;Laerm;62569;51.976;5.646;2022-08-11T16:27:34;49.37;30.56;68.99;;
74210;Laerm;62569;51.976;5.646;2022-08-11T16:30:00;49.12;32.37;69.74;;
74210;Laerm;62569;51.976;5.646;2022-08-11T16:32:25;49.84;29.70;71.45;;
74210;Laerm;62569;51.976;5.646;2022-08-11T16:34:53;48.20;35.66;65.09;;
74210;Laerm;62569;51.976;5.646;2022-08-11T16:37:38;48.47;34.72;66.58;;
74210;Laerm;62569;51.976;5.646;2022-08-11T16:40:23;47.90;32.86;70.12;;
74210;Laerm;62569;51.976;5.646;2022-08-11T16:42:49;50.54;31.96;77.24;;
74210;Laerm;62569;51.976;5.646;2022-08-11T16:45:33;48.59;29.65;73.87;;
74210;Laerm;62569;51.976;5.646;2022-08-11T16:48:19;48.19;29.84;64.12;;
74210;Laerm;62569;51.976;5.646;2022-08-11T16:50:45;48.86;29.47;68.67;;
74210;Laerm;62569;51.976;5.646;2022-08-11T16:53:10;49.57;34.94;60.11;;
74210;Laerm;62569;51.976;5.646;2022-08-11T16:55:36;49.08;34.64;74.67;;
74210;Laerm;62569;51.976;5.646;2022-08-11T16:58:01;49.87;32.25;70.31;;
74210;Laerm;62569;51.976;5.646;2022-08-11T17:00:45;49.26;31.04;61.84;;
74210;Laerm;62569;51.976;5.646;2022-08-11T17:03:12;48.93;30.03;64.89;;
74210;Laerm;62569;51.976;5.646;2022-08-11T17:05:56;49.10;32.18;61.95;;